Time;durP1;ratioP1;P1;durP2;ratioP2;P2;SDS_P1;SDS_P2;PMS_P1;PMS_P2;Temp;Humidity;BMP_temperature;BMP_pressure;BME280_temperature;BME280_humidity;BME280_pressure;Samples;Min_cycle;Max_cycle;Signal;HPM_P1;HPM_P2
2022/10/27 00:02:00;;;;;;;12.20;3.87;;;-11.80;99.90;;;;;;5045126;28;20223;-72
2022/10/27 00:04:25;;;;;;;5.73;3.03;;;-12.70;99.90;;;;;;5033789;28;20216;-71
2022/10/27 00:06:51;;;;;;;5.73;2.57;;;-11.80;99.90;;;;;;5018080;28;20242;-69
2022/10/27 00:09:17;;;;;;;10.43;2.67;;;-13.40;99.90;;;;;;5027746;28;20173;-70
2022/10/27 00:11:43;;;;;;;3.47;3.17;;;-15.20;99.90;;;;;;5032398;28;20267;-70
2022/10/27 00:14:08;;;;;;;7.47;2.50;;;-15.50;99.90;;;;;;5018228;28;20186;-69
2022/10/27 00:16:34;;;;;;;6.30;2.80;;;-19.40;99.90;;;;;;5029051;28;20196;-72
2022/10/27 00:19:00;;;;;;;8.00;3.17;;;-12.70;99.90;;;;;;5029255;28;20230;-72
2022/10/27 00:21:26;;;;;;;6.93;3.47;;;-14.90;99.90;;;;;;5035702;28;20237;-71
2022/10/27 00:23:52;;;;;;;4.40;3.27;;;-13.70;99.90;;;;;;5021264;28;20289;-75
2022/10/27 00:26:20;;;;;;;6.83;2.90;;;-16.00;99.90;;;;;;5031467;28;20181;-73
2022/10/27 00:28:46;;;;;;;7.40;2.57;;;-15.00;99.90;;;;;;5034362;28;20187;-69
2022/10/27 00:31:20;;;;;;;6.03;3.07;;;-15.30;99.90;;;;;;5033431;28;20648;-70
2022/10/27 00:33:47;;;;;;;6.27;2.37;;;-15.50;99.90;;;;;;5029207;28;20256;-72
2022/10/27 00:36:19;;;;;;;5.40;2.97;;;-14.00;99.90;;;;;;5025090;28;20572;-69
2022/10/27 00:38:44;;;;;;;4.93;2.70;;;-15.20;99.90;;;;;;5046471;28;20185;-71
2022/10/27 00:41:30;;;;;;;5.60;3.10;;;-15.80;99.90;;;;;;5024379;28;20677;-70
2022/10/27 00:43:58;;;;;;;4.43;2.80;;;-16.20;99.90;;;;;;5023658;28;20588;-70
2022/10/27 00:46:38;;;;;;;8.30;3.13;;;-16.60;99.90;;;;;;5030667;28;20570;-72
2022/10/27 00:49:15;;;;;;;16.77;3.23;;;-14.90;99.90;;;;;;5033201;28;20260;-70
2022/10/27 00:51:47;;;;;;;8.13;3.53;;;-12.20;99.90;;;;;;5023680;28;20196;-71
2022/10/27 00:54:14;;;;;;;7.17;3.73;;;-16.30;99.90;;;;;;5035222;28;20243;-70
2022/10/27 00:56:41;;;;;;;26.23;4.23;;;-15.50;99.90;;;;;;5028941;28;20199;-70
2022/10/27 00:59:07;;;;;;;6.97;3.03;;;-17.20;99.90;;;;;;5031240;28;20588;-70
2022/10/27 01:01:35;;;;;;;4.60;2.87;;;-19.00;99.90;;;;;;5030334;28;20235;-72
2022/10/27 01:04:01;;;;;;;4.07;3.07;;;-19.70;99.90;;;;;;5035480;28;20208;-70
2022/10/27 01:06:27;;;;;;;7.87;3.10;;;-16.60;99.90;;;;;;5054618;28;20667;-70
2022/10/27 01:08:53;;;;;;;6.97;2.87;;;-14.80;99.90;;;;;;5054244;28;20279;-70
2022/10/27 01:11:19;;;;;;;5.00;2.90;;;-13.50;99.90;;;;;;5038934;28;20196;-70
2022/10/27 01:13:45;;;;;;;9.83;2.90;;;-12.80;99.90;;;;;;5054210;28;20227;-72
2022/10/27 01:16:22;;;;;;;4.40;2.50;;;-12.90;99.90;;;;;;5038703;28;20497;-72
2022/10/27 01:18:51;;;;;;;5.73;3.13;;;-13.20;99.90;;;;;;5038349;28;20185;-70
2022/10/27 01:21:47;;;;;;;6.00;2.47;;;-17.20;99.90;;;;;;5025359;28;20212;-71
2022/10/27 01:24:15;;;;;;;9.37;2.60;;;-15.70;99.90;;;;;;5026121;28;20206;-70
2022/10/27 01:26:58;;;;;;;6.87;2.57;;;-16.10;99.90;;;;;;5029880;28;20260;-71
2022/10/27 01:29:38;;;;;;;4.33;2.77;;;-19.40;99.90;;;;;;5033718;28;20268;-71
2022/10/27 01:32:22;;;;;;;7.60;2.70;;;-17.70;99.90;;;;;;5033525;28;20519;-70
2022/10/27 01:35:12;;;;;;;6.40;3.07;;;-16.60;99.90;;;;;;5038277;28;20180;-70
2022/10/27 01:38:05;;;;;;;9.53;2.97;;;-16.80;99.90;;;;;;5025295;28;20180;-70
2022/10/27 01:40:47;;;;;;;2.63;2.43;;;-17.90;99.90;;;;;;5026045;28;20251;-69
2022/10/27 01:43:18;;;;;;;5.63;2.53;;;-18.80;99.90;;;;;;5033501;28;20615;-71
2022/10/27 01:45:44;;;;;;;11.57;4.17;;;-19.00;99.90;;;;;;5025061;28;20182;-70
2022/10/27 01:48:11;;;;;;;7.13;2.90;;;-17.30;99.90;;;;;;5037001;28;20204;-70
2022/10/27 01:50:39;;;;;;;8.33;3.23;;;-16.40;99.90;;;;;;5038248;28;20269;-71
2022/10/27 01:53:05;;;;;;;3.20;2.10;;;-16.70;99.90;;;;;;5031938;28;20230;-70
2022/10/27 01:56:07;;;;;;;12.13;3.20;;;-15.50;99.90;;;;;;5033835;28;20180;-70
2022/10/27 01:58:47;;;;;;;5.63;2.63;;;-15.30;99.90;;;;;;5032454;28;20322;-71
2022/10/27 02:01:34;;;;;;;7.13;3.47;;;-16.90;99.90;;;;;;5030068;28;20619;-71
2022/10/27 02:04:35;;;;;;;6.30;2.63;;;-16.60;99.90;;;;;;5037485;28;20221;-71
2022/10/27 02:07:19;;;;;;;5.70;3.13;;;-14.90;99.90;;;;;;5033006;28;20177;-71
2022/10/27 02:09:46;;;;;;;8.60;3.13;;;-13.00;99.90;;;;;;5053215;28;20246;-74
2022/10/27 02:12:37;;;;;;;4.17;2.57;;;-16.90;99.90;;;;;;5026970;28;20189;-69
2022/10/27 02:15:13;;;;;;;11.00;3.43;;;-14.60;99.90;;;;;;5026650;28;20207;-73
2022/10/27 02:17:42;;;;;;;11.27;2.80;;;-16.30;99.90;;;;;;5037441;28;20188;-70
2022/10/27 02:20:13;;;;;;;8.60;3.53;;;-16.40;99.90;;;;;;5029528;28;20179;-73
2022/10/27 02:22:42;;;;;;;7.80;2.37;;;-14.90;99.90;;;;;;5032324;28;20243;-70
2022/10/27 02:25:08;;;;;;;9.60;2.57;;;-12.60;99.90;;;;;;5037636;28;20209;-70
2022/10/27 02:27:39;;;;;;;5.30;2.47;;;-11.30;99.90;;;;;;5029574;28;20192;-70
2022/10/27 02:30:05;;;;;;;6.93;2.63;;;-11.10;99.90;;;;;;5026781;28;20201;-72
2022/10/27 02:32:33;;;;;;;6.40;2.90;;;-12.00;99.90;;;;;;5029483;28;20231;-70
2022/10/27 02:34:59;;;;;;;9.97;4.07;;;-13.50;99.90;;;;;;5030688;28;20263;-70
2022/10/27 02:37:40;;;;;;;10.67;2.53;;;-13.60;99.90;;;;;;5037460;28;20220;-71
2022/10/27 02:40:07;;;;;;;16.43;3.83;;;-12.70;99.90;;;;;;5023685;28;20502;-72
2022/10/27 02:42:32;;;;;;;8.70;2.97;;;-14.10;99.90;;;;;;5036637;28;20189;-71
2022/10/27 02:44:58;;;;;;;4.97;2.67;;;-16.70;99.90;;;;;;5030756;28;20223;-69
2022/10/27 02:47:24;;;;;;;5.33;2.73;;;-14.30;99.90;;;;;;5030397;28;20184;-74
2022/10/27 02:49:50;;;;;;;10.43;3.03;;;-16.60;99.90;;;;;;5035285;28;20272;-74
2022/10/27 02:52:16;;;;;;;9.60;2.67;;;-19.20;99.90;;;;;;5030425;28;20191;-73
2022/10/27 02:54:46;;;;;;;5.33;2.20;;;-16.10;99.90;;;;;;5033695;28;20217;-70
2022/10/27 02:57:18;;;;;;;7.37;2.00;;;-20.00;99.90;;;;;;5036334;28;20588;-72
2022/10/27 02:59:44;;;;;;;3.50;2.40;;;-20.40;99.90;;;;;;5037016;28;20595;-71
2022/10/27 03:02:10;;;;;;;4.73;2.53;;;-16.90;99.90;;;;;;5036591;28;20235;-70
2022/10/27 03:04:36;;;;;;;3.03;2.07;;;-17.80;99.90;;;;;;5036487;28;20216;-72
2022/10/27 03:07:03;;;;;;;5.90;2.70;;;-16.80;99.90;;;;;;5036765;28;20207;-75
2022/10/27 03:09:28;;;;;;;6.77;2.47;;;-13.00;99.90;;;;;;5030051;28;20172;-74
2022/10/27 03:11:54;;;;;;;4.07;1.73;;;-14.50;99.90;;;;;;5028948;28;20184;-71
2022/10/27 03:14:20;;;;;;;6.53;2.20;;;-12.20;99.90;;;;;;5024160;28;20196;-70
2022/10/27 03:16:46;;;;;;;6.17;2.30;;;-11.90;99.90;;;;;;5024362;28;20212;-76
2022/10/27 03:19:11;;;;;;;11.00;3.13;;;-16.10;99.90;;;;;;5018394;28;20263;-70
2022/10/27 03:21:37;;;;;;;5.03;1.80;;;-14.60;99.90;;;;;;5034281;28;20188;-72
2022/10/27 03:24:03;;;;;;;4.07;2.20;;;-13.10;99.90;;;;;;5036373;28;20208;-74
2022/10/27 03:26:29;;;;;;;5.00;2.13;;;-13.40;99.90;;;;;;5024029;28;20184;-75
2022/10/27 03:28:54;;;;;;;3.57;2.03;;;-12.00;99.90;;;;;;5029336;28;20453;-75
2022/10/27 03:31:20;;;;;;;11.27;2.80;;;-12.70;99.90;;;;;;5034241;28;20260;-75
2022/10/27 03:33:46;;;;;;;4.70;1.87;;;-11.30;99.90;;;;;;5028724;28;20211;-73
2022/10/27 03:36:12;;;;;;;5.60;2.07;;;-12.60;99.90;;;;;;5048147;28;20184;-78
2022/10/27 03:38:39;;;;;;;6.17;3.20;;;-12.70;99.90;;;;;;5036135;28;20267;-74
2022/10/27 03:41:05;;;;;;;11.63;3.77;;;-12.70;99.90;;;;;;5031334;28;20176;-74
2022/10/27 03:43:30;;;;;;;8.93;2.40;;;-14.40;99.90;;;;;;5035668;28;20210;-74
2022/10/27 03:45:56;;;;;;;2.83;2.00;;;-14.10;99.90;;;;;;5017688;28;20169;-69
2022/10/27 03:48:22;;;;;;;5.53;3.77;;;-16.70;99.90;;;;;;5034752;28;20180;-73
2022/10/27 03:50:49;;;;;;;7.43;2.30;;;-14.60;99.90;;;;;;5034898;28;20195;-75
2022/10/27 03:53:16;;;;;;;5.20;1.80;;;-14.50;99.90;;;;;;5035611;28;20207;-75
2022/10/27 03:55:42;;;;;;;5.43;2.20;;;-13.30;99.90;;;;;;5030148;28;20177;-74
2022/10/27 03:58:12;;;;;;;10.47;3.00;;;-11.80;99.90;;;;;;5045584;28;20576;-72
2022/10/27 04:00:39;;;;;;;4.97;3.13;;;-13.50;99.90;;;;;;5030635;28;20177;-75
2022/10/27 04:03:05;;;;;;;2.53;2.30;;;-15.10;99.90;;;;;;5024943;28;20266;-76
2022/10/27 04:05:32;;;;;;;6.60;2.10;;;-15.10;99.90;;;;;;5034986;28;20235;-75
2022/10/27 04:07:58;;;;;;;3.70;1.60;;;-16.00;99.90;;;;;;5035748;28;20181;-76
2022/10/27 04:10:24;;;;;;;8.20;1.67;;;-15.50;99.90;;;;;;5028614;28;20195;-75
2022/10/27 04:12:56;;;;;;;13.23;2.83;;;-16.50;99.90;;;;;;5024631;28;20503;-77
2022/10/27 04:15:24;;;;;;;1.17;1.07;;;-16.80;99.90;;;;;;5033981;28;20584;-76
2022/10/27 04:17:55;;;;;;;2.17;1.47;;;-12.10;99.90;;;;;;5026089;28;20196;-75
2022/10/27 04:20:21;;;;;;;4.93;1.60;;;-10.40;99.90;;;;;;5021733;28;20181;-73
2022/10/27 04:22:46;;;;;;;11.17;2.27;;;-11.80;99.90;;;;;;5024161;28;20272;-75
2022/10/27 04:25:12;;;;;;;7.33;2.17;;;-12.20;99.90;;;;;;5043584;28;20205;-70
2022/10/27 04:27:38;;;;;;;4.57;1.43;;;-13.60;99.90;;;;;;5035557;28;20631;-72
2022/10/27 04:30:04;;;;;;;2.97;1.73;;;-14.40;99.90;;;;;;5031456;28;20593;-73
2022/10/27 04:32:29;;;;;;;5.93;1.90;;;-12.70;99.90;;;;;;5034386;28;20192;-75
2022/10/27 04:34:55;;;;;;;6.53;2.53;;;-11.90;99.90;;;;;;5030673;28;20206;-73
2022/10/27 04:37:21;;;;;;;5.73;1.90;;;-12.30;99.90;;;;;;5033982;28;20184;-73
2022/10/27 04:39:46;;;;;;;1.87;1.10;;;-11.90;99.90;;;;;;5033874;28;20576;-75
2022/10/27 04:42:12;;;;;;;4.20;1.50;;;-10.10;99.90;;;;;;5032299;28;20500;-73
2022/10/27 04:44:38;;;;;;;3.27;1.30;;;-9.10;99.90;;;;;;5038298;28;20212;-74
2022/10/27 04:47:03;;;;;;;1.90;1.77;;;-14.90;99.90;;;;;;5039420;28;20180;-72
2022/10/27 04:49:29;;;;;;;7.97;1.90;;;-18.00;99.90;;;;;;5039284;28;20193;-71
2022/10/27 04:51:55;;;;;;;4.83;1.63;;;-15.90;99.90;;;;;;5039054;28;20652;-70
2022/10/27 04:54:21;;;;;;;5.20;2.07;;;-16.90;99.90;;;;;;5021646;28;20189;-71
2022/10/27 04:56:47;;;;;;;5.83;2.10;;;-15.30;99.90;;;;;;5036154;28;20238;-70
2022/10/27 04:59:12;;;;;;;5.40;1.87;;;-13.60;99.90;;;;;;5031469;28;20185;-72
2022/10/27 05:01:38;;;;;;;2.13;0.90;;;-14.20;99.90;;;;;;5027357;28;20508;-75
2022/10/27 05:04:04;;;;;;;2.93;1.07;;;-14.70;99.90;;;;;;5029328;28;20212;-70
2022/10/27 05:06:30;;;;;;;3.07;1.40;;;-13.60;99.90;;;;;;5029995;28;20189;-74
2022/10/27 05:08:56;;;;;;;5.77;2.00;;;-14.00;99.90;;;;;;5035301;28;20234;-74
2022/10/27 05:11:22;;;;;;;7.90;1.63;;;-13.90;99.90;;;;;;5038569;28;20404;-74
2022/10/27 05:13:51;;;;;;;8.73;1.33;;;-14.40;99.90;;;;;;5029721;28;20577;-71
2022/10/27 05:16:17;;;;;;;4.27;1.03;;;-11.80;99.90;;;;;;5032713;28;20248;-73
2022/10/27 05:18:43;;;;;;;3.97;1.53;;;-11.30;99.90;;;;;;5034793;28;20176;-70
2022/10/27 05:21:09;;;;;;;7.37;1.60;;;-13.30;99.90;;;;;;5030962;28;20268;-73
2022/10/27 05:23:34;;;;;;;3.13;1.53;;;-14.90;99.90;;;;;;5030112;28;20591;-74
2022/10/27 05:26:00;;;;;;;1.10;1.10;;;-12.80;99.90;;;;;;5038525;28;20183;-71
2022/10/27 05:28:26;;;;;;;4.43;1.50;;;-12.90;99.90;;;;;;5038591;28;20264;-73
2022/10/27 05:30:58;;;;;;;8.43;2.37;;;-13.60;99.90;;;;;;5031296;28;20181;-73
2022/10/27 05:33:25;;;;;;;2.73;2.23;;;-12.30;99.90;;;;;;5042610;28;20197;-72
2022/10/27 05:35:50;;;;;;;3.10;1.40;;;-14.70;99.90;;;;;;5036534;28;20205;-71
2022/10/27 05:38:17;;;;;;;2.67;2.30;;;-12.60;99.90;;;;;;5030843;28;20219;-69
2022/10/27 05:40:42;;;;;;;1.90;1.80;;;-12.10;99.90;;;;;;5038187;28;20250;-73
2022/10/27 05:43:09;;;;;;;3.67;2.00;;;-12.60;99.90;;;;;;5037299;28;20181;-71
2022/10/27 05:45:35;;;;;;;6.00;2.20;;;-11.30;99.90;;;;;;5033122;28;20244;-69
2022/10/27 05:48:07;;;;;;;2.90;1.80;;;-12.90;99.90;;;;;;5035607;28;20219;-71
2022/10/27 05:50:33;;;;;;;2.93;1.60;;;-14.60;99.90;;;;;;5026654;28;20192;-72
2022/10/27 05:52:59;;;;;;;2.60;2.40;;;-13.90;99.90;;;;;;5046599;28;20267;-73
2022/10/27 05:55:25;;;;;;;4.40;1.70;;;-15.30;99.90;;;;;;5038256;28;20188;-70
2022/10/27 05:57:55;;;;;;;2.50;2.00;;;-15.90;99.90;;;;;;5037192;28;20643;-70
2022/10/27 06:00:29;;;;;;;3.80;1.50;;;-17.40;99.90;;;;;;5032013;28;20193;-71
2022/10/27 06:02:59;;;;;;;3.83;1.53;;;-17.50;99.90;;;;;;5026374;28;20299;-72
2022/10/27 06:05:26;;;;;;;2.43;2.03;;;-16.20;99.90;;;;;;5032758;28;20209;-76
2022/10/27 06:07:52;;;;;;;12.43;2.10;;;-16.20;99.90;;;;;;5026038;28;20185;-76
2022/10/27 06:10:18;;;;;;;2.73;2.53;;;-17.70;99.90;;;;;;5023730;28;20185;-74
2022/10/27 06:12:44;;;;;;;2.47;1.40;;;-15.40;99.90;;;;;;5036858;28;20610;-77
2022/10/27 06:15:10;;;;;;;2.40;1.70;;;-14.70;99.90;;;;;;5030337;28;20618;-71
2022/10/27 06:17:36;;;;;;;4.70;1.33;;;-13.60;99.90;;;;;;5037777;28;20193;-78
2022/10/27 06:20:02;;;;;;;4.80;1.30;;;-14.20;99.90;;;;;;5032425;28;20180;-75
2022/10/27 06:22:27;;;;;;;6.67;1.77;;;-14.30;99.90;;;;;;5037606;28;20271;-73
2022/10/27 06:24:53;;;;;;;2.23;2.10;;;-14.10;99.90;;;;;;5030292;28;20208;-73
2022/10/27 06:27:19;;;;;;;2.23;1.33;;;-14.50;99.90;;;;;;5033384;28;20216;-72
2022/10/27 06:29:45;;;;;;;7.53;1.13;;;-15.10;99.90;;;;;;5034384;28;20184;-74
2022/10/27 06:32:10;;;;;;;5.77;1.80;;;-13.90;99.90;;;;;;5039019;28;20255;-73
2022/10/27 06:34:36;;;;;;;1.97;1.07;;;-13.60;99.90;;;;;;5038968;28;20188;-70
2022/10/27 06:37:02;;;;;;;6.80;1.53;;;-13.20;99.90;;;;;;5028899;28;20180;-76
2022/10/27 06:39:28;;;;;;;5.33;2.40;;;-12.20;99.90;;;;;;5030479;28;20180;-73
2022/10/27 06:41:55;;;;;;;1.33;1.10;;;-11.30;99.90;;;;;;5036933;28;20192;-76
2022/10/27 06:44:21;;;;;;;3.80;1.33;;;-12.60;99.90;;;;;;5033731;28;20213;-73
2022/10/27 06:46:47;;;;;;;7.20;1.87;;;-10.50;99.90;;;;;;5027288;28;20238;-73
2022/10/27 06:49:13;;;;;;;5.10;1.23;;;-10.50;99.90;;;;;;5025730;28;20186;-70
2022/10/27 06:51:38;;;;;;;2.60;1.77;;;-12.20;99.90;;;;;;5046659;28;20189;-71
2022/10/27 06:54:05;;;;;;;2.40;1.00;;;-11.60;99.90;;;;;;5024903;28;20189;-71
2022/10/27 06:56:33;;;;;;;6.23;1.27;;;-11.00;99.90;;;;;;5036490;28;20196;-75
2022/10/27 06:58:59;;;;;;;5.23;1.70;;;-12.20;99.90;;;;;;5035692;28;20534;-70
2022/10/27 07:01:25;;;;;;;4.70;2.03;;;-13.60;99.90;;;;;;5035895;28;20204;-72
2022/10/27 07:03:51;;;;;;;2.17;1.60;;;-15.20;99.90;;;;;;5022478;28;20196;-73
2022/10/27 07:06:17;;;;;;;3.63;1.83;;;-16.80;99.90;;;;;;5027337;28;20188;-70
2022/10/27 07:08:43;;;;;;;3.60;1.43;;;-17.30;99.90;;;;;;5031387;28;20188;-73
2022/10/27 07:11:09;;;;;;;4.77;1.77;;;-13.30;99.90;;;;;;5031462;28;20184;-71
2022/10/27 07:13:35;;;;;;;8.53;2.20;;;-14.10;99.90;;;;;;5035956;28;20192;-71
2022/10/27 07:16:01;;;;;;;5.70;1.80;;;-13.40;99.90;;;;;;5030995;28;20259;-69
2022/10/27 07:18:26;;;;;;;6.33;1.50;;;-17.40;99.90;;;;;;5036210;28;20268;-71
2022/10/27 07:20:52;;;;;;;2.33;1.50;;;-14.20;99.90;;;;;;5025481;28;20264;-72
2022/10/27 07:23:18;;;;;;;8.90;1.60;;;-15.60;99.90;;;;;;5032375;28;20231;-70
2022/10/27 07:25:48;;;;;;;2.60;1.30;;;-17.20;99.90;;;;;;5036095;28;20230;-71
2022/10/27 07:28:14;;;;;;;2.50;1.50;;;-17.20;99.90;;;;;;5029537;28;20188;-69
2022/10/27 07:30:43;;;;;;;5.53;1.70;;;-16.10;99.90;;;;;;5031010;28;20266;-70
2022/10/27 07:33:12;;;;;;;3.20;0.97;;;-18.00;99.90;;;;;;5045521;28;20584;-71
2022/10/27 07:35:39;;;;;;;2.87;2.10;;;-15.50;99.90;;;;;;5016468;28;20184;-71
2022/10/27 07:38:06;;;;;;;5.00;2.33;;;-15.70;99.90;;;;;;5032175;28;20194;-70
2022/10/27 07:40:33;;;;;;;8.03;1.60;;;-14.10;99.90;;;;;;5032466;28;20588;-70
2022/10/27 07:43:00;;;;;;;3.60;1.27;;;-17.50;99.90;;;;;;5031810;28;20268;-70
2022/10/27 07:45:26;;;;;;;4.10;2.27;;;-19.60;99.90;;;;;;5051159;28;20222;-71
2022/10/27 07:47:54;;;;;;;5.63;1.87;;;-16.00;99.90;;;;;;5028589;28;20461;-70
2022/10/27 07:50:23;;;;;;;5.37;1.90;;;-14.60;99.90;;;;;;5033749;28;20203;-72
2022/10/27 07:52:51;;;;;;;2.80;1.53;;;-16.00;99.90;;;;;;5034079;28;20181;-69
2022/10/27 07:55:19;;;;;;;3.93;1.80;;;-17.90;99.90;;;;;;5036025;28;20188;-76
2022/10/27 07:57:46;;;;;;;4.73;1.50;;;-19.60;99.90;;;;;;5026468;28;20177;-73
2022/10/27 08:00:14;;;;;;;4.03;2.33;;;-17.80;99.90;;;;;;5030794;28;20616;-76
2022/10/27 08:02:41;;;;;;;3.53;2.33;;;-15.80;99.90;;;;;;5017745;28;20229;-70
2022/10/27 08:05:08;;;;;;;6.80;1.63;;;-22.80;99.90;;;;;;5014398;28;20209;-72
2022/10/27 08:07:34;;;;;;;2.73;1.90;;;-21.30;99.90;;;;;;5031280;28;20182;-72
2022/10/27 08:10:00;;;;;;;3.03;1.50;;;-22.60;99.90;;;;;;5031270;28;20659;-70
2022/10/27 08:12:26;;;;;;;4.67;1.60;;;-19.20;99.90;;;;;;5035136;28;20184;-71
2022/10/27 08:14:52;;;;;;;5.80;2.37;;;-24.00;99.90;;;;;;5047249;28;20588;-73
2022/10/27 08:17:18;;;;;;;4.10;1.33;;;-23.10;99.90;;;;;;5026135;28;20263;-74
2022/10/27 08:19:44;;;;;;;5.07;2.00;;;-23.20;99.90;;;;;;5023208;28;20195;-74
2022/10/27 08:22:09;;;;;;;6.87;1.40;;;-25.40;99.90;;;;;;5027788;28;20193;-71
2022/10/27 08:24:35;;;;;;;5.93;2.30;;;-25.90;99.90;;;;;;5030736;28;20200;-70
2022/10/27 08:27:01;;;;;;;3.13;1.20;;;-31.20;99.90;;;;;;5023913;28;20202;-72
2022/10/27 08:29:27;;;;;;;20.03;16.13;;;-28.40;99.90;;;;;;5050287;28;20615;-70
2022/10/27 08:31:52;;;;;;;27.70;20.87;;;-28.50;99.90;;;;;;5033993;28;20181;-72
2022/10/27 08:34:18;;;;;;;13.07;10.87;;;-39.20;99.90;;;;;;5021915;28;20259;-71
2022/10/27 08:36:44;;;;;;;5.43;4.93;;;-36.40;99.90;;;;;;5031977;28;20180;-70
2022/10/27 08:39:11;;;;;;;5.67;3.23;;;-40.00;99.90;;;;;;5027263;28;20493;-71
2022/10/27 08:42:09;;;;;;;1.93;1.60;;;-40.00;99.90;;;;;;5029676;28;20178;-70
2022/10/27 08:44:50;;;;;;;8.63;1.90;;;-40.00;99.90;;;;;;5019043;28;20228;-71
2022/10/27 08:47:25;;;;;;;2.37;2.17;;;-40.00;99.90;;;;;;5027113;28;20189;-71
2022/10/27 08:50:01;;;;;;;6.07;1.83;;;-40.00;99.90;;;;;;5031280;28;20180;-71
2022/10/27 08:52:36;;;;;;;7.20;1.50;;;-40.00;99.90;;;;;;5027346;28;20181;-73
2022/10/27 08:55:24;;;;;;;8.77;2.53;;;-40.00;99.90;;;;;;5017270;28;20177;-75
2022/10/27 08:58:01;;;;;;;6.20;2.37;;;-39.70;99.90;;;;;;5030223;28;20211;-74
2022/10/27 09:00:30;;;;;;;4.17;2.30;;;-39.80;99.90;;;;;;5034068;28;20212;-77
2022/10/27 09:03:23;;;;;;;6.10;1.77;;;-40.00;99.90;;;;;;5030901;28;20684;-72
2022/10/27 09:06:02;;;;;;;5.10;2.13;;;-40.00;99.90;;;;;;5026909;28;20193;-72
2022/10/27 09:09:11;;;;;;;5.27;2.10;;;-40.00;99.90;;;;;;5031124;28;20489;-70
2022/10/27 09:11:48;;;;;;;1.73;1.33;;;-40.00;99.90;;;;;;5030529;28;20268;-72
2022/10/27 09:14:26;;;;;;;6.03;1.80;;;-40.00;99.90;;;;;;5029511;28;20489;-70
2022/10/27 09:17:18;;;;;;;3.47;1.97;;;-40.00;99.90;;;;;;5035086;28;20184;-71
2022/10/27 09:20:06;;;;;;;6.90;1.90;;;-40.00;99.90;;;;;;5026695;28;20188;-71
2022/10/27 09:22:36;;;;;;;4.13;2.93;;;-40.00;99.90;;;;;;5035590;28;20176;-71
2022/10/27 09:25:05;;;;;;;2.80;2.03;;;-40.00;99.90;;;;;;5037286;28;20197;-70
2022/10/27 09:27:33;;;;;;;6.87;2.23;;;-40.00;99.90;;;;;;5027866;28;20188;-70
2022/10/27 09:30:04;;;;;;;5.63;2.17;;;-40.00;99.90;;;;;;5030192;28;20207;-71
2022/10/27 09:32:33;;;;;;;3.13;1.83;;;-40.00;99.90;;;;;;5039241;28;20176;-72
2022/10/27 09:35:08;;;;;;;10.73;2.20;;;-40.00;99.90;;;;;;5039274;28;20189;-69
2022/10/27 09:37:40;;;;;;;4.60;2.03;;;-40.00;99.90;;;;;;5039134;28;20211;-70
2022/10/27 09:40:25;;;;;;;6.67;2.17;;;-40.00;99.90;;;;;;5031045;28;20237;-69
2022/10/27 09:42:54;;;;;;;3.60;1.73;;;-40.00;99.90;;;;;;5030587;28;20185;-72
2022/10/27 09:45:27;;;;;;;5.97;2.90;;;-40.00;99.90;;;;;;5034377;28;20550;-69
2022/10/27 09:48:02;;;;;;;4.60;3.20;;;-40.00;99.90;;;;;;5035329;28;20230;-76
2022/10/27 09:50:36;;;;;;;5.80;2.83;;;-40.00;99.90;;;;;;5036715;28;20627;-73
2022/10/27 09:53:03;;;;;;;4.97;1.90;;;-40.00;99.90;;;;;;5038333;28;20217;-68
2022/10/27 09:55:50;;;;;;;8.40;2.60;;;-40.00;99.90;;;;;;5031430;28;20271;-74
2022/10/27 09:58:17;;;;;;;4.50;2.23;;;-40.00;99.90;;;;;;5037662;28;20322;-73
2022/10/27 10:00:43;;;;;;;7.43;2.63;;;-40.00;99.90;;;;;;5037638;28;20630;-74
2022/10/27 10:03:19;;;;;;;6.27;2.57;;;-40.00;99.90;;;;;;5037968;28;20204;-74
2022/10/27 10:05:46;;;;;;;16.47;2.57;;;-40.00;99.90;;;;;;5029129;28;20240;-73
2022/10/27 10:08:23;;;;;;;2.90;2.10;;;-40.00;99.90;;;;;;5024734;28;20227;-75
2022/10/27 10:10:58;;;;;;;3.03;1.97;;;-40.00;99.90;;;;;;5027385;28;20176;-72
2022/10/27 10:13:25;;;;;;;3.67;1.90;;;-40.00;99.90;;;;;;5040972;28;20603;-69
2022/10/27 10:16:08;;;;;;;3.87;2.07;;;-40.00;99.90;;;;;;5037776;28;20189;-70
2022/10/27 10:18:34;;;;;;;7.60;3.40;;;-40.00;99.90;;;;;;5023697;28;20185;-70
2022/10/27 10:21:09;;;;;;;10.67;2.83;;;-40.00;99.90;;;;;;5046013;28;20181;-71
2022/10/27 10:23:46;;;;;;;3.30;2.37;;;-40.00;99.90;;;;;;5025235;28;20181;-71
2022/10/27 10:26:25;;;;;;;7.03;1.97;;;-40.00;99.90;;;;;;5026391;28;20173;-70
2022/10/27 10:28:54;;;;;;;7.63;2.87;;;-40.00;99.90;;;;;;5033133;28;20181;-70
2022/10/27 10:31:28;;;;;;;4.90;2.27;;;-40.00;99.90;;;;;;5037208;28;20246;-69
2022/10/27 10:34:03;;;;;;;9.37;2.33;;;-40.00;99.90;;;;;;5046108;28;20542;-69
2022/10/27 10:36:40;;;;;;;5.47;3.37;;;-40.00;99.90;;;;;;5036664;28;20275;-69
2022/10/27 10:39:34;;;;;;;10.73;3.77;;;-40.00;99.90;;;;;;5024510;28;20258;-69
2022/10/27 10:42:09;;;;;;;4.63;2.20;;;-40.00;99.90;;;;;;5030017;28;20200;-71
2022/10/27 10:44:36;;;;;;;11.90;3.03;;;-40.00;99.90;;;;;;5036633;28;20192;-70
2022/10/27 10:47:02;;;;;;;6.13;2.30;;;-40.00;99.90;;;;;;5036866;28;20577;-69
2022/10/27 10:49:31;;;;;;;8.87;1.93;;;-40.00;99.90;;;;;;5029690;28;20169;-69
2022/10/27 10:52:03;;;;;;;6.87;3.23;;;-40.00;99.90;;;;;;5052351;28;20184;-69
2022/10/27 10:54:39;;;;;;;11.53;3.40;;;-40.00;99.90;;;;;;5024480;28;20247;-68
2022/10/27 10:57:20;;;;;;;9.77;3.20;;;-40.00;99.90;;;;;;5031513;28;20173;-69
2022/10/27 10:59:47;;;;;;;12.67;3.00;;;-40.00;99.90;;;;;;5018733;28;20295;-69
2022/10/27 11:02:26;;;;;;;6.17;2.30;;;-40.00;99.90;;;;;;5019046;28;20221;-69
2022/10/27 11:04:53;;;;;;;6.37;2.90;;;-40.00;99.90;;;;;;5045235;28;20250;-70
2022/10/27 11:07:24;;;;;;;7.17;2.27;;;-40.00;99.90;;;;;;5036390;28;20254;-69
2022/10/27 11:10:11;;;;;;;6.00;2.67;;;-40.00;99.90;;;;;;5028181;28;20176;-70
2022/10/27 11:12:48;;;;;;;5.30;2.33;;;-40.00;99.90;;;;;;5024386;28;20495;-68
2022/10/27 11:15:52;;;;;;;19.77;2.73;;;-40.00;99.90;;;;;;5021310;28;20188;-69
2022/10/27 11:18:23;;;;;;;5.87;2.80;;;-40.00;99.90;;;;;;5020556;28;20234;-72
2022/10/27 11:20:57;;;;;;;9.27;2.53;;;-40.00;99.90;;;;;;5052106;28;20482;-70
2022/10/27 11:23:48;;;;;;;4.80;3.00;;;-40.00;99.90;;;;;;5031402;28;20199;-72
2022/10/27 11:26:29;;;;;;;5.83;3.57;;;-40.00;99.90;;;;;;5031995;28;20484;-71
2022/10/27 11:29:36;;;;;;;9.00;2.33;;;-40.00;99.90;;;;;;5028815;28;20181;-71
2022/10/27 11:32:08;;;;;;;7.50;3.37;;;-40.00;98.10;;;;;;5017499;28;20193;-73
2022/10/27 11:35:03;;;;;;;13.00;2.73;;;-40.00;98.30;;;;;;5043168;28;20189;-70
2022/10/27 11:38:00;;;;;;;4.57;2.67;;;-40.00;96.80;;;;;;5039272;28;20229;-70
2022/10/27 11:40:32;;;;;;;5.23;2.10;;;-40.00;96.90;;;;;;5033017;28;20234;-71
2022/10/27 11:43:11;;;;;;;3.20;2.23;;;-40.00;97.60;;;;;;5018353;28;20645;-70
2022/10/27 11:45:50;;;;;;;6.23;2.37;;;-40.00;96.00;;;;;;5017197;28;20233;-71
2022/10/27 11:48:25;;;;;;;4.27;2.40;;;-40.00;97.30;;;;;;5018071;28;20204;-70
2022/10/27 11:51:06;;;;;;;5.63;2.57;;;-40.00;96.30;;;;;;5017457;28;20466;-70
2022/10/27 11:53:32;;;;;;;3.50;2.53;;;-40.00;95.20;;;;;;5025859;28;20173;-71
2022/10/27 11:56:06;;;;;;;21.27;4.43;;;-40.00;96.10;;;;;;5021970;28;20216;-70
2022/10/27 11:58:54;;;;;;;9.50;2.50;;;-40.00;94.30;;;;;;5047082;28;20180;-72
2022/10/27 12:01:44;;;;;;;4.73;2.40;;;-40.00;93.20;;;;;;5042678;28;20192;-73
2022/10/27 12:04:34;;;;;;;4.67;2.50;;;-40.00;92.60;;;;;;5034448;28;20291;-72
2022/10/27 12:07:55;;;;;;;5.70;2.80;;;-40.00;92.20;;;;;;5020331;28;20176;-72
2022/10/27 12:10:35;;;;;;;11.53;4.07;;;-40.00;91.60;;;;;;5018225;28;20597;-71
2022/10/27 12:13:12;;;;;;;12.83;3.47;;;-40.00;92.80;;;;;;5029111;28;20183;-71
2022/10/27 12:15:45;;;;;;;9.00;2.63;;;-40.00;92.20;;;;;;5034413;28;20172;-70
2022/10/27 12:19:07;;;;;;;8.63;2.60;;;-40.00;93.00;;;;;;5035534;28;20600;-71
2022/10/27 12:21:35;;;;;;;11.27;3.03;;;-40.00;91.40;;;;;;4993262;28;20195;-71
2022/10/27 12:24:13;;;;;;;7.37;3.07;;;-40.00;91.20;;;;;;5018179;28;20620;-73
2022/10/27 12:26:56;;;;;;;6.03;2.47;;;-40.00;89.50;;;;;;5042113;28;20181;-71
2022/10/27 12:29:28;;;;;;;7.67;3.13;;;-40.00;89.40;;;;;;5038008;28;20180;-70
2022/10/27 12:32:05;;;;;;;7.30;3.77;;;-40.00;88.20;;;;;;5031882;28;20189;-71
2022/10/27 12:34:36;;;;;;;9.67;2.80;;;-40.00;87.60;;;;;;5034033;28;20564;-72
2022/10/27 12:37:11;;;;;;;12.90;2.30;;;-40.00;88.10;;;;;;5029085;28;20182;-71
2022/10/27 12:39:43;;;;;;;5.13;2.53;;;-40.00;87.00;;;;;;5044537;28;20189;-71
2022/10/27 12:42:19;;;;;;;4.93;2.00;;;-40.00;88.20;;;;;;5035375;28;20486;-72
2022/10/27 12:45:06;;;;;;;6.17;3.30;;;-40.00;89.50;;;;;;5022054;28;20570;-72
2022/10/27 12:48:23;;;;;;;5.97;3.70;;;-40.00;90.40;;;;;;5028493;28;20195;-70
2022/10/27 12:51:00;;;;;;;12.13;3.83;;;-40.00;88.90;;;;;;5007303;28;20268;-71
2022/10/27 12:53:48;;;;;;;7.27;2.97;;;-40.00;90.40;;;;;;5024444;28;20184;-70
2022/10/27 12:56:25;;;;;;;12.03;2.53;;;-40.00;91.50;;;;;;5022346;28;20231;-71
2022/10/27 12:58:59;;;;;;;6.60;2.70;;;-40.00;90.90;;;;;;5033172;28;20190;-71